sensor_id;sensor_type;location;lat;lon;timestamp;pressure;altitude;pressure_sealevel;temperature
48003;BMP280;33768;48.578;11.574;2023-04-12T00:01:23;96039.66;;;5.70
48003;BMP280;33768;48.578;11.574;2023-04-12T00:04:27;96044.16;;;5.62
48003;BMP280;33768;48.578;11.574;2023-04-12T00:07:31;96033.59;;;5.53
48003;BMP280;33768;48.578;11.574;2023-04-12T00:10:35;96034.38;;;5.48
48003;BMP280;33768;48.578;11.574;2023-04-12T00:13:39;96020.34;;;5.50
48003;BMP280;33768;48.578;11.574;2023-04-12T00:16:44;96025.69;;;5.60
48003;BMP280;33768;48.578;11.574;2023-04-12T00:19:48;96019.03;;;5.67
48003;BMP280;33768;48.578;11.574;2023-04-12T00:22:52;96020.22;;;5.71
48003;BMP280;33768;48.578;11.574;2023-04-12T00:25:57;96008.38;;;5.74
48003;BMP280;33768;48.578;11.574;2023-04-12T00:29:02;96011.38;;;5.71
48003;BMP280;33768;48.578;11.574;2023-04-12T00:32:06;96008.19;;;5.67
48003;BMP280;33768;48.578;11.574;2023-04-12T00:35:10;96007.44;;;5.66
48003;BMP280;33768;48.578;11.574;2023-04-12T00:38:14;95996.63;;;5.61
48003;BMP280;33768;48.578;11.574;2023-04-12T00:41:20;95991.75;;;5.60
48003;BMP280;33768;48.578;11.574;2023-04-12T00:44:24;95989.53;;;5.58
48003;BMP280;33768;48.578;11.574;2023-04-12T00:47:28;95992.00;;;5.56
48003;BMP280;33768;48.578;11.574;2023-04-12T00:50:34;95983.63;;;5.54
48003;BMP280;33768;48.578;11.574;2023-04-12T00:53:39;95985.13;;;5.55
48003;BMP280;33768;48.578;11.574;2023-04-12T00:56:44;95986.78;;;5.63
48003;BMP280;33768;48.578;11.574;2023-04-12T00:59:49;95981.84;;;5.67
48003;BMP280;33768;48.578;11.574;2023-04-12T01:02:55;95964.09;;;5.66
48003;BMP280;33768;48.578;11.574;2023-04-12T01:06:12;95972.47;;;5.68
48003;BMP280;33768;48.578;11.574;2023-04-12T01:09:34;95960.38;;;5.69
48003;BMP280;33768;48.578;11.574;2023-04-12T01:16:34;95957.69;;;5.69
48003;BMP280;33768;48.578;11.574;2023-04-12T01:19:47;95942.66;;;5.74
48003;BMP280;33768;48.578;11.574;2023-04-12T01:26:43;95952.28;;;5.75
48003;BMP280;33768;48.578;11.574;2023-04-12T01:29:48;95952.22;;;5.80
48003;BMP280;33768;48.578;11.574;2023-04-12T01:32:56;95938.94;;;5.82
48003;BMP280;33768;48.578;11.574;2023-04-12T01:36:03;95940.88;;;5.82
48003;BMP280;33768;48.578;11.574;2023-04-12T01:39:09;95941.06;;;5.89
48003;BMP280;33768;48.578;11.574;2023-04-12T01:42:18;95934.09;;;5.99
48003;BMP280;33768;48.578;11.574;2023-04-12T01:45:23;95945.09;;;6.06
48003;BMP280;33768;48.578;11.574;2023-04-12T01:48:27;95943.34;;;6.09
48003;BMP280;33768;48.578;11.574;2023-04-12T01:54:50;95949.97;;;6.13
48003;BMP280;33768;48.578;11.574;2023-04-12T01:57:58;95949.75;;;6.11
48003;BMP280;33768;48.578;11.574;2023-04-12T02:01:05;95933.25;;;6.09
48003;BMP280;33768;48.578;11.574;2023-04-12T02:04:10;95936.91;;;6.12
48003;BMP280;33768;48.578;11.574;2023-04-12T02:07:15;95932.03;;;6.10
48003;BMP280;33768;48.578;11.574;2023-04-12T02:10:27;95934.22;;;6.12
48003;BMP280;33768;48.578;11.574;2023-04-12T02:13:32;95925.28;;;6.17
48003;BMP280;33768;48.578;11.574;2023-04-12T02:16:36;95925.53;;;6.19
48003;BMP280;33768;48.578;11.574;2023-04-12T02:19:42;95927.75;;;6.20
48003;BMP280;33768;48.578;11.574;2023-04-12T02:22:47;95925.22;;;6.22
48003;BMP280;33768;48.578;11.574;2023-04-12T02:25:52;95924.75;;;6.23
48003;BMP280;33768;48.578;11.574;2023-04-12T02:28:56;95924.00;;;6.23
48003;BMP280;33768;48.578;11.574;2023-04-12T02:32:00;95926.00;;;6.23
48003;BMP280;33768;48.578;11.574;2023-04-12T02:35:05;95917.09;;;6.22
48003;BMP280;33768;48.578;11.574;2023-04-12T02:38:12;95913.16;;;6.23
48003;BMP280;33768;48.578;11.574;2023-04-12T02:41:18;95922.75;;;6.24
48003;BMP280;33768;48.578;11.574;2023-04-12T02:44:24;95923.28;;;6.23
48003;BMP280;33768;48.578;11.574;2023-04-12T02:47:45;95916.44;;;6.16
48003;BMP280;33768;48.578;11.574;2023-04-12T02:50:49;95920.94;;;6.08
48003;BMP280;33768;48.578;11.574;2023-04-12T02:53:56;95915.59;;;6.03
48003;BMP280;33768;48.578;11.574;2023-04-12T02:57:03;95919.09;;;5.98
48003;BMP280;33768;48.578;11.574;2023-04-12T03:00:15;95915.66;;;5.92
48003;BMP280;33768;48.578;11.574;2023-04-12T03:03:34;95919.34;;;5.94
48003;BMP280;33768;48.578;11.574;2023-04-12T03:06:48;95915.19;;;5.93
48003;BMP280;33768;48.578;11.574;2023-04-12T03:10:01;95912.47;;;5.93
48003;BMP280;33768;48.578;11.574;2023-04-12T03:13:09;95908.50;;;5.94
48003;BMP280;33768;48.578;11.574;2023-04-12T03:16:24;95904.06;;;5.97
48003;BMP280;33768;48.578;11.574;2023-04-12T03:19:39;95902.81;;;5.98
48003;BMP280;33768;48.578;11.574;2023-04-12T03:22:44;95894.69;;;5.98
48003;BMP280;33768;48.578;11.574;2023-04-12T03:25:49;95891.03;;;5.95
48003;BMP280;33768;48.578;11.574;2023-04-12T03:29:12;95895.19;;;5.96
48003;BMP280;33768;48.578;11.574;2023-04-12T03:32:18;95898.44;;;5.95
48003;BMP280;33768;48.578;11.574;2023-04-12T03:35:24;95897.66;;;5.94
48003;BMP280;33768;48.578;11.574;2023-04-12T03:38:29;95887.59;;;5.95
48003;BMP280;33768;48.578;11.574;2023-04-12T03:41:33;95891.75;;;5.96
48003;BMP280;33768;48.578;11.574;2023-04-12T03:44:41;95889.78;;;5.96
48003;BMP280;33768;48.578;11.574;2023-04-12T03:47:49;95883.16;;;5.92
48003;BMP280;33768;48.578;11.574;2023-04-12T03:50:55;95876.78;;;5.90
48003;BMP280;33768;48.578;11.574;2023-04-12T03:54:02;95886.16;;;5.89
48003;BMP280;33768;48.578;11.574;2023-04-12T03:57:15;95872.63;;;5.89
48003;BMP280;33768;48.578;11.574;2023-04-12T04:00:22;95869.41;;;5.90
48003;BMP280;33768;48.578;11.574;2023-04-12T04:03:45;95861.50;;;5.92
48003;BMP280;33768;48.578;11.574;2023-04-12T04:07:01;95860.03;;;5.91
48003;BMP280;33768;48.578;11.574;2023-04-12T04:10:09;95856.84;;;5.93
48003;BMP280;33768;48.578;11.574;2023-04-12T04:13:16;95848.91;;;5.94
48003;BMP280;33768;48.578;11.574;2023-04-12T04:16:20;95837.66;;;5.91
48003;BMP280;33768;48.578;11.574;2023-04-12T04:19:26;95852.16;;;5.93
48003;BMP280;33768;48.578;11.574;2023-04-12T04:22:30;95841.81;;;5.92
48003;BMP280;33768;48.578;11.574;2023-04-12T04:25:37;95846.28;;;5.89
48003;BMP280;33768;48.578;11.574;2023-04-12T04:28:45;95846.28;;;5.89
48003;BMP280;33768;48.578;11.574;2023-04-12T04:31:53;95842.41;;;5.85
48003;BMP280;33768;48.578;11.574;2023-04-12T04:34:58;95841.88;;;5.86
48003;BMP280;33768;48.578;11.574;2023-04-12T04:38:06;95829.28;;;5.89
48003;BMP280;33768;48.578;11.574;2023-04-12T04:41:11;95828.56;;;5.88
48003;BMP280;33768;48.578;11.574;2023-04-12T04:44:31;95823.53;;;6.57
48003;BMP280;33768;48.578;11.574;2023-04-12T04:47:41;95821.25;;;7.60
48003;BMP280;33768;48.578;11.574;2023-04-12T04:50:45;95819.69;;;8.08
48003;BMP280;33768;48.578;11.574;2023-04-12T04:53:50;95820.09;;;8.25
48003;BMP280;33768;48.578;11.574;2023-04-12T04:56:55;95824.16;;;8.44
48003;BMP280;33768;48.578;11.574;2023-04-12T05:00:00;95812.97;;;8.47
48003;BMP280;33768;48.578;11.574;2023-04-12T05:03:03;95810.66;;;7.87
48003;BMP280;33768;48.578;11.574;2023-04-12T05:06:07;95803.66;;;7.35
48003;BMP280;33768;48.578;11.574;2023-04-12T05:09:14;95795.38;;;6.97
48003;BMP280;33768;48.578;11.574;2023-04-12T05:12:25;95794.31;;;6.69
48003;BMP280;33768;48.578;11.574;2023-04-12T05:15:32;95794.91;;;6.44
48003;BMP280;33768;48.578;11.574;2023-04-12T05:18:37;95785.16;;;6.35
48003;BMP280;33768;48.578;11.574;2023-04-12T05:21:41;95782.78;;;6.26
48003;BMP280;33768;48.578;11.574;2023-04-12T05:24:46;95784.78;;;6.26
48003;BMP280;33768;48.578;11.574;2023-04-12T05:27:50;95779.44;;;6.21
48003;BMP280;33768;48.578;11.574;2023-04-12T05:30:55;95772.59;;;6.14
48003;BMP280;33768;48.578;11.574;2023-04-12T05:34:03;95775.31;;;6.14
48003;BMP280;33768;48.578;11.574;2023-04-12T05:37:11;95764.16;;;5.99
48003;BMP280;33768;48.578;11.574;2023-04-12T05:40:16;95755.81;;;5.97
48003;BMP280;33768;48.578;11.574;2023-04-12T05:43:20;95751.41;;;5.94
48003;BMP280;33768;48.578;11.574;2023-04-12T05:46:24;95743.28;;;5.94
48003;BMP280;33768;48.578;11.574;2023-04-12T05:49:29;95741.81;;;5.93
48003;BMP280;33768;48.578;11.574;2023-04-12T05:52:36;95731.06;;;5.88
48003;BMP280;33768;48.578;11.574;2023-04-12T05:55:41;95733.47;;;5.92
48003;BMP280;33768;48.578;11.574;2023-04-12T05:58:46;95726.06;;;5.92
48003;BMP280;33768;48.578;11.574;2023-04-12T06:01:51;95730.41;;;6.00
48003;BMP280;33768;48.578;11.574;2023-04-12T06:04:57;95730.13;;;6.04
48003;BMP280;33768;48.578;11.574;2023-04-12T06:08:06;95716.81;;;6.06
48003;BMP280;33768;48.578;11.574;2023-04-12T06:11:11;95727.13;;;6.07
48003;BMP280;33768;48.578;11.574;2023-04-12T06:14:15;95724.94;;;6.06
48003;BMP280;33768;48.578;11.574;2023-04-12T06:17:22;95721.72;;;6.07
48003;BMP280;33768;48.578;11.574;2023-04-12T06:20:26;95720.69;;;6.10
48003;BMP280;33768;48.578;11.574;2023-04-12T06:23:30;95713.44;;;6.18
48003;BMP280;33768;48.578;11.574;2023-04-12T06:26:34;95716.81;;;6.24
48003;BMP280;33768;48.578;11.574;2023-04-12T06:29:39;95709.53;;;6.32
48003;BMP280;33768;48.578;11.574;2023-04-12T06:32:44;95706.03;;;6.37
48003;BMP280;33768;48.578;11.574;2023-04-12T06:35:48;95700.25;;;6.46
48003;BMP280;33768;48.578;11.574;2023-04-12T06:38:53;95702.22;;;6.45
48003;BMP280;33768;48.578;11.574;2023-04-12T06:41:58;95693.28;;;6.50
48003;BMP280;33768;48.578;11.574;2023-04-12T06:45:03;95697.50;;;6.64
48003;BMP280;33768;48.578;11.574;2023-04-12T06:48:07;95695.25;;;6.68
48003;BMP280;33768;48.578;11.574;2023-04-12T06:51:11;95696.81;;;6.76
48003;BMP280;33768;48.578;11.574;2023-04-12T06:54:15;95689.22;;;6.87
48003;BMP280;33768;48.578;11.574;2023-04-12T06:57:19;95691.66;;;6.91
48003;BMP280;33768;48.578;11.574;2023-04-12T07:00:23;95690.06;;;6.95
48003;BMP280;33768;48.578;11.574;2023-04-12T07:03:28;95687.50;;;7.03
48003;BMP280;33768;48.578;11.574;2023-04-12T07:06:34;95683.44;;;7.09
48003;BMP280;33768;48.578;11.574;2023-04-12T07:09:38;95677.91;;;7.15
48003;BMP280;33768;48.578;11.574;2023-04-12T07:12:42;95665.72;;;7.21
48003;BMP280;33768;48.578;11.574;2023-04-12T07:15:51;95669.50;;;7.31
48003;BMP280;33768;48.578;11.574;2023-04-12T07:18:55;95662.31;;;7.46
48003;BMP280;33768;48.578;11.574;2023-04-12T07:21:59;95670.34;;;7.51
48003;BMP280;33768;48.578;11.574;2023-04-12T07:25:04;95663.34;;;7.56
48003;BMP280;33768;48.578;11.574;2023-04-12T07:28:12;95655.72;;;7.54
48003;BMP280;33768;48.578;11.574;2023-04-12T07:31:17;95660.53;;;7.61
48003;BMP280;33768;48.578;11.574;2023-04-12T07:34:21;95648.63;;;7.51
48003;BMP280;33768;48.578;11.574;2023-04-12T07:37:25;95639.66;;;7.44
48003;BMP280;33768;48.578;11.574;2023-04-12T07:40:29;95640.16;;;7.42
48003;BMP280;33768;48.578;11.574;2023-04-12T07:43:33;95631.78;;;7.40
48003;BMP280;33768;48.578;11.574;2023-04-12T07:46:38;95633.56;;;7.50
48003;BMP280;33768;48.578;11.574;2023-04-12T07:49:42;95627.00;;;7.59
48003;BMP280;33768;48.578;11.574;2023-04-12T07:52:46;95630.22;;;7.70
48003;BMP280;33768;48.578;11.574;2023-04-12T07:55:51;95626.31;;;7.78
48003;BMP280;33768;48.578;11.574;2023-04-12T07:58:55;95619.75;;;7.87
48003;BMP280;33768;48.578;11.574;2023-04-12T08:02:00;95621.28;;;7.95
48003;BMP280;33768;48.578;11.574;2023-04-12T08:05:05;95625.66;;;7.98
48003;BMP280;33768;48.578;11.574;2023-04-12T08:08:09;95614.59;;;8.09
48003;BMP280;33768;48.578;11.574;2023-04-12T08:11:14;95604.34;;;8.15
48003;BMP280;33768;48.578;11.574;2023-04-12T08:14:19;95610.44;;;8.28
48003;BMP280;33768;48.578;11.574;2023-04-12T08:17:23;95601.06;;;8.49
48003;BMP280;33768;48.578;11.574;2023-04-12T08:20:30;95595.88;;;8.59
48003;BMP280;33768;48.578;11.574;2023-04-12T08:23:35;95587.47;;;8.49
48003;BMP280;33768;48.578;11.574;2023-04-12T08:26:39;95590.97;;;8.37
48003;BMP280;33768;48.578;11.574;2023-04-12T08:29:44;95585.78;;;8.26
48003;BMP280;33768;48.578;11.574;2023-04-12T08:32:48;95577.09;;;8.28
48003;BMP280;33768;48.578;11.574;2023-04-12T08:35:52;95579.88;;;8.35
48003;BMP280;33768;48.578;11.574;2023-04-12T08:38:59;95571.38;;;8.39
48003;BMP280;33768;48.578;11.574;2023-04-12T08:42:04;95569.28;;;8.44
48003;BMP280;33768;48.578;11.574;2023-04-12T08:45:10;95567.16;;;8.50
48003;BMP280;33768;48.578;11.574;2023-04-12T08:48:15;95568.28;;;8.55
48003;BMP280;33768;48.578;11.574;2023-04-12T08:51:20;95566.94;;;8.69
48003;BMP280;33768;48.578;11.574;2023-04-12T08:54:25;95560.97;;;8.70
48003;BMP280;33768;48.578;11.574;2023-04-12T08:57:31;95557.25;;;8.80
48003;BMP280;33768;48.578;11.574;2023-04-12T09:00:36;95537.75;;;8.97
48003;BMP280;33768;48.578;11.574;2023-04-12T09:03:44;95541.19;;;8.90
48003;BMP280;33768;48.578;11.574;2023-04-12T09:06:48;95527.91;;;8.86
48003;BMP280;33768;48.578;11.574;2023-04-12T09:09:53;95527.38;;;8.88
48003;BMP280;33768;48.578;11.574;2023-04-12T09:12:59;95543.16;;;8.89
48003;BMP280;33768;48.578;11.574;2023-04-12T09:16:03;95527.06;;;8.99
48003;BMP280;33768;48.578;11.574;2023-04-12T09:19:08;95519.31;;;9.03
48003;BMP280;33768;48.578;11.574;2023-04-12T09:22:12;95505.84;;;8.97
48003;BMP280;33768;48.578;11.574;2023-04-12T09:25:16;95478.63;;;8.97
48003;BMP280;33768;48.578;11.574;2023-04-12T09:28:25;95458.19;;;9.11
48003;BMP280;33768;48.578;11.574;2023-04-12T09:31:30;95469.81;;;9.11
48003;BMP280;33768;48.578;11.574;2023-04-12T09:34:35;95485.66;;;9.20
48003;BMP280;33768;48.578;11.574;2023-04-12T09:37:39;95483.13;;;9.30
48003;BMP280;33768;48.578;11.574;2023-04-12T09:40:43;95469.88;;;9.26
48003;BMP280;33768;48.578;11.574;2023-04-12T09:43:47;95493.09;;;9.20
48003;BMP280;33768;48.578;11.574;2023-04-12T09:46:51;95475.88;;;9.32
48003;BMP280;33768;48.578;11.574;2023-04-12T09:49:55;95480.25;;;9.85
48003;BMP280;33768;48.578;11.574;2023-04-12T09:53:01;95476.16;;;10.43
48003;BMP280;33768;48.578;11.574;2023-04-12T09:56:06;95472.13;;;10.81
48003;BMP280;33768;48.578;11.574;2023-04-12T09:59:12;95456.94;;;11.24
48003;BMP280;33768;48.578;11.574;2023-04-12T10:02:18;95443.59;;;11.28
48003;BMP280;33768;48.578;11.574;2023-04-12T10:05:24;95439.75;;;11.31
48003;BMP280;33768;48.578;11.574;2023-04-12T10:08:29;95422.63;;;11.45
48003;BMP280;33768;48.578;11.574;2023-04-12T10:11:35;95436.00;;;11.65
48003;BMP280;33768;48.578;11.574;2023-04-12T10:14:41;95435.28;;;12.20
48003;BMP280;33768;48.578;11.574;2023-04-12T10:17:51;95423.19;;;13.05
48003;BMP280;33768;48.578;11.574;2023-04-12T10:20:57;95410.09;;;13.63
48003;BMP280;33768;48.578;11.574;2023-04-12T10:24:01;95411.91;;;13.35
48003;BMP280;33768;48.578;11.574;2023-04-12T10:27:05;95403.84;;;12.70
48003;BMP280;33768;48.578;11.574;2023-04-12T10:33:30;95405.56;;;12.99
48003;BMP280;33768;48.578;11.574;2023-04-12T10:36:59;95386.72;;;13.03
48003;BMP280;33768;48.578;11.574;2023-04-12T10:40:03;95371.56;;;12.68
48003;BMP280;33768;48.578;11.574;2023-04-12T10:43:24;95361.84;;;12.17
48003;BMP280;33768;48.578;11.574;2023-04-12T10:50:21;95364.34;;;11.74
48003;BMP280;33768;48.578;11.574;2023-04-12T10:53:27;95359.16;;;11.86
48003;BMP280;33768;48.578;11.574;2023-04-12T10:56:42;95361.16;;;11.85
48003;BMP280;33768;48.578;11.574;2023-04-12T10:59:53;95366.25;;;11.88
48003;BMP280;33768;48.578;11.574;2023-04-12T11:03:05;95364.84;;;12.04
48003;BMP280;33768;48.578;11.574;2023-04-12T11:06:10;95358.03;;;12.13
48003;BMP280;33768;48.578;11.574;2023-04-12T11:12:37;95341.34;;;12.42
48003;BMP280;33768;48.578;11.574;2023-04-12T11:15:41;95349.09;;;12.53
48003;BMP280;33768;48.578;11.574;2023-04-12T11:18:52;95347.50;;;13.00
48003;BMP280;33768;48.578;11.574;2023-04-12T11:21:58;95346.41;;;13.55
48003;BMP280;33768;48.578;11.574;2023-04-12T11:25:03;95341.03;;;13.74
48003;BMP280;33768;48.578;11.574;2023-04-12T11:28:08;95331.22;;;13.71
48003;BMP280;33768;48.578;11.574;2023-04-12T11:31:12;95332.06;;;13.38
48003;BMP280;33768;48.578;11.574;2023-04-12T11:34:18;95325.09;;;13.37
48003;BMP280;33768;48.578;11.574;2023-04-12T11:37:23;95330.59;;;13.37
48003;BMP280;33768;48.578;11.574;2023-04-12T11:40:29;95327.34;;;13.05
48003;BMP280;33768;48.578;11.574;2023-04-12T11:43:34;95322.44;;;13.04
48003;BMP280;33768;48.578;11.574;2023-04-12T11:46:38;95307.28;;;13.03
48003;BMP280;33768;48.578;11.574;2023-04-12T11:49:47;95314.97;;;12.87
48003;BMP280;33768;48.578;11.574;2023-04-12T11:52:52;95328.31;;;12.67
48003;BMP280;33768;48.578;11.574;2023-04-12T11:55:56;95326.88;;;12.49
48003;BMP280;33768;48.578;11.574;2023-04-12T11:59:04;95329.13;;;12.60
48003;BMP280;33768;48.578;11.574;2023-04-12T12:02:08;95314.16;;;12.61
48003;BMP280;33768;48.578;11.574;2023-04-12T12:05:12;95310.78;;;12.53
48003;BMP280;33768;48.578;11.574;2023-04-12T12:08:17;95309.47;;;12.54
48003;BMP280;33768;48.578;11.574;2023-04-12T12:11:23;95310.84;;;12.62
48003;BMP280;33768;48.578;11.574;2023-04-12T12:14:27;95310.44;;;12.49
48003;BMP280;33768;48.578;11.574;2023-04-12T12:17:35;95314.72;;;12.43
48003;BMP280;33768;48.578;11.574;2023-04-12T12:20:42;95326.69;;;12.30
48003;BMP280;33768;48.578;11.574;2023-04-12T12:23:50;95314.22;;;12.37
48003;BMP280;33768;48.578;11.574;2023-04-12T12:26:55;95316.72;;;12.42
48003;BMP280;33768;48.578;11.574;2023-04-12T12:30:00;95308.50;;;12.42
48003;BMP280;33768;48.578;11.574;2023-04-12T12:33:05;95301.84;;;12.36
48003;BMP280;33768;48.578;11.574;2023-04-12T12:36:09;95294.41;;;12.29
48003;BMP280;33768;48.578;11.574;2023-04-12T12:39:13;95294.50;;;12.21
48003;BMP280;33768;48.578;11.574;2023-04-12T12:42:18;95287.41;;;12.18
48003;BMP280;33768;48.578;11.574;2023-04-12T12:45:24;95276.81;;;12.22
48003;BMP280;33768;48.578;11.574;2023-04-12T12:48:28;95279.03;;;12.17
48003;BMP280;33768;48.578;11.574;2023-04-12T12:51:32;95270.59;;;12.22
48003;BMP280;33768;48.578;11.574;2023-04-12T12:54:36;95269.50;;;12.25
48003;BMP280;33768;48.578;11.574;2023-04-12T12:57:42;95267.72;;;12.37
48003;BMP280;33768;48.578;11.574;2023-04-12T13:00:46;95263.69;;;12.38
48003;BMP280;33768;48.578;11.574;2023-04-12T13:03:51;95257.19;;;12.33
48003;BMP280;33768;48.578;11.574;2023-04-12T13:06:55;95250.91;;;12.23
48003;BMP280;33768;48.578;11.574;2023-04-12T13:09:59;95252.03;;;12.20
48003;BMP280;33768;48.578;11.574;2023-04-12T13:13:03;95241.63;;;12.19
48003;BMP280;33768;48.578;11.574;2023-04-12T13:16:08;95225.31;;;12.28
48003;BMP280;33768;48.578;11.574;2023-04-12T13:19:12;95224.25;;;12.41
48003;BMP280;33768;48.578;11.574;2023-04-12T13:22:16;95217.50;;;12.42
48003;BMP280;33768;48.578;11.574;2023-04-12T13:25:20;95208.72;;;12.60
48003;BMP280;33768;48.578;11.574;2023-04-12T13:28:25;95199.75;;;12.59
48003;BMP280;33768;48.578;11.574;2023-04-12T13:31:29;95200.25;;;12.65
48003;BMP280;33768;48.578;11.574;2023-04-12T13:34:33;95201.44;;;12.72
48003;BMP280;33768;48.578;11.574;2023-04-12T13:37:37;95191.44;;;12.83
48003;BMP280;33768;48.578;11.574;2023-04-12T13:40:42;95188.09;;;13.02
48003;BMP280;33768;48.578;11.574;2023-04-12T13:43:46;95183.31;;;13.38
48003;BMP280;33768;48.578;11.574;2023-04-12T13:46:50;95179.25;;;13.74
48003;BMP280;33768;48.578;11.574;2023-04-12T13:49:54;95172.41;;;14.20
48003;BMP280;33768;48.578;11.574;2023-04-12T13:52:58;95177.63;;;14.35
48003;BMP280;33768;48.578;11.574;2023-04-12T13:56:03;95174.69;;;14.79
48003;BMP280;33768;48.578;11.574;2023-04-12T13:59:07;95169.94;;;15.19
48003;BMP280;33768;48.578;11.574;2023-04-12T14:02:11;95170.13;;;15.72
48003;BMP280;33768;48.578;11.574;2023-04-12T14:05:15;95158.19;;;16.29
48003;BMP280;33768;48.578;11.574;2023-04-12T14:08:19;95153.34;;;16.19
48003;BMP280;33768;48.578;11.574;2023-04-12T14:11:23;95152.59;;;15.97
48003;BMP280;33768;48.578;11.574;2023-04-12T14:14:27;95143.44;;;15.84
48003;BMP280;33768;48.578;11.574;2023-04-12T14:17:32;95138.28;;;16.20
48003;BMP280;33768;48.578;11.574;2023-04-12T14:20:36;95145.97;;;16.32
48003;BMP280;33768;48.578;11.574;2023-04-12T14:23:40;95140.88;;;16.18
48003;BMP280;33768;48.578;11.574;2023-04-12T14:26:44;95141.19;;;16.12
48003;BMP280;33768;48.578;11.574;2023-04-12T14:29:48;95137.28;;;15.95
48003;BMP280;33768;48.578;11.574;2023-04-12T14:32:52;95135.31;;;15.86
48003;BMP280;33768;48.578;11.574;2023-04-12T14:35:56;95131.00;;;15.83
48003;BMP280;33768;48.578;11.574;2023-04-12T14:39:01;95132.69;;;15.88
48003;BMP280;33768;48.578;11.574;2023-04-12T14:42:06;95135.84;;;15.73
48003;BMP280;33768;48.578;11.574;2023-04-12T14:45:10;95142.38;;;15.68
48003;BMP280;33768;48.578;11.574;2023-04-12T14:48:15;95127.25;;;15.78
48003;BMP280;33768;48.578;11.574;2023-04-12T14:51:19;95123.97;;;16.12
48003;BMP280;33768;48.578;11.574;2023-04-12T14:54:23;95110.03;;;16.51
48003;BMP280;33768;48.578;11.574;2023-04-12T14:57:27;95110.81;;;16.74
48003;BMP280;33768;48.578;11.574;2023-04-12T15:00:34;95108.19;;;16.88
48003;BMP280;33768;48.578;11.574;2023-04-12T15:03:39;95095.03;;;16.97
48003;BMP280;33768;48.578;11.574;2023-04-12T15:06:44;95104.84;;;16.89
48003;BMP280;33768;48.578;11.574;2023-04-12T15:09:48;95100.81;;;16.47
48003;BMP280;33768;48.578;11.574;2023-04-12T15:12:53;95104.78;;;16.02
48003;BMP280;33768;48.578;11.574;2023-04-12T15:15:57;95099.09;;;15.89
48003;BMP280;33768;48.578;11.574;2023-04-12T15:19:01;95099.69;;;15.88
48003;BMP280;33768;48.578;11.574;2023-04-12T15:22:05;95100.53;;;15.69
48003;BMP280;33768;48.578;11.574;2023-04-12T15:25:09;95095.50;;;15.66
48003;BMP280;33768;48.578;11.574;2023-04-12T15:28:14;95094.34;;;15.60
48003;BMP280;33768;48.578;11.574;2023-04-12T15:31:18;95093.44;;;15.46
48003;BMP280;33768;48.578;11.574;2023-04-12T15:34:22;95090.53;;;15.23
48003;BMP280;33768;48.578;11.574;2023-04-12T15:37:27;95088.09;;;15.18
48003;BMP280;33768;48.578;11.574;2023-04-12T15:40:31;95095.03;;;15.19
48003;BMP280;33768;48.578;11.574;2023-04-12T15:43:36;95085.63;;;15.22
48003;BMP280;33768;48.578;11.574;2023-04-12T15:46:40;95079.53;;;15.23
48003;BMP280;33768;48.578;11.574;2023-04-12T15:49:45;95085.97;;;15.07
48003;BMP280;33768;48.578;11.574;2023-04-12T15:52:50;95084.38;;;15.04
48003;BMP280;33768;48.578;11.574;2023-04-12T15:55:56;95075.41;;;15.13
48003;BMP280;33768;48.578;11.574;2023-04-12T15:59:00;95068.47;;;15.12
48003;BMP280;33768;48.578;11.574;2023-04-12T16:02:05;95084.00;;;14.89
48003;BMP280;33768;48.578;11.574;2023-04-12T16:05:11;95077.75;;;14.98
48003;BMP280;33768;48.578;11.574;2023-04-12T16:08:16;95065.88;;;15.04
48003;BMP280;33768;48.578;11.574;2023-04-12T16:11:22;95063.25;;;15.06
48003;BMP280;33768;48.578;11.574;2023-04-12T16:14:29;95069.06;;;15.10
48003;BMP280;33768;48.578;11.574;2023-04-12T16:17:35;95067.03;;;15.11
48003;BMP280;33768;48.578;11.574;2023-04-12T16:20:40;95072.53;;;15.01
48003;BMP280;33768;48.578;11.574;2023-04-12T16:23:45;95055.06;;;14.97
48003;BMP280;33768;48.578;11.574;2023-04-12T16:26:50;95050.59;;;14.92
48003;BMP280;33768;48.578;11.574;2023-04-12T16:29:54;95047.44;;;14.86
48003;BMP280;33768;48.578;11.574;2023-04-12T16:33:00;95053.97;;;14.81
48003;BMP280;33768;48.578;11.574;2023-04-12T16:36:04;95041.25;;;14.76
48003;BMP280;33768;48.578;11.574;2023-04-12T16:39:08;95035.81;;;14.67
48003;BMP280;33768;48.578;11.574;2023-04-12T16:42:13;95049.88;;;14.62
48003;BMP280;33768;48.578;11.574;2023-04-12T16:45:18;95044.41;;;14.52
48003;BMP280;33768;48.578;11.574;2023-04-12T16:48:24;95041.25;;;14.46
48003;BMP280;33768;48.578;11.574;2023-04-12T16:51:29;95032.88;;;14.35
48003;BMP280;33768;48.578;11.574;2023-04-12T16:54:33;95036.25;;;14.24
48003;BMP280;33768;48.578;11.574;2023-04-12T16:57:39;95032.94;;;14.16
48003;BMP280;33768;48.578;11.574;2023-04-12T17:00:43;95025.56;;;14.09
48003;BMP280;33768;48.578;11.574;2023-04-12T17:03:47;95015.47;;;14.03
48003;BMP280;33768;48.578;11.574;2023-04-12T17:06:52;95014.16;;;13.94
48003;BMP280;33768;48.578;11.574;2023-04-12T17:09:56;95020.06;;;13.91
48003;BMP280;33768;48.578;11.574;2023-04-12T17:13:00;95026.88;;;13.80
48003;BMP280;33768;48.578;11.574;2023-04-12T17:16:04;95018.53;;;13.69
48003;BMP280;33768;48.578;11.574;2023-04-12T17:19:09;95012.47;;;13.61
48003;BMP280;33768;48.578;11.574;2023-04-12T17:22:13;95010.88;;;13.58
48003;BMP280;33768;48.578;11.574;2023-04-12T17:25:18;95008.84;;;13.49
48003;BMP280;33768;48.578;11.574;2023-04-12T17:28:22;95008.84;;;13.40
48003;BMP280;33768;48.578;11.574;2023-04-12T17:31:30;95001.34;;;13.31
48003;BMP280;33768;48.578;11.574;2023-04-12T17:34:34;95005.38;;;13.21
48003;BMP280;33768;48.578;11.574;2023-04-12T17:37:39;95005.50;;;13.13
48003;BMP280;33768;48.578;11.574;2023-04-12T17:40:43;95004.47;;;13.09
48003;BMP280;33768;48.578;11.574;2023-04-12T17:43:47;95001.88;;;13.02
48003;BMP280;33768;48.578;11.574;2023-04-12T17:46:51;95011.66;;;12.95
48003;BMP280;33768;48.578;11.574;2023-04-12T17:49:56;95009.19;;;12.90
48003;BMP280;33768;48.578;11.574;2023-04-12T17:53:00;94997.34;;;12.87
48003;BMP280;33768;48.578;11.574;2023-04-12T17:56:05;95013.19;;;12.80
48003;BMP280;33768;48.578;11.574;2023-04-12T17:59:09;95012.91;;;12.76
48003;BMP280;33768;48.578;11.574;2023-04-12T18:02:14;95023.66;;;12.74
48003;BMP280;33768;48.578;11.574;2023-04-12T18:05:19;95011.53;;;12.67